Terminal Aerodrome Forecast
Issued by NWS

Home | Current Version | Previous Version | Text Only | Print | Product List | Glossary On
Versions: 1 2 3 4 5 6 7 8 9 10 11 12 13 14 15 16 17 18 19 20 21 22 23 24
000
FTUS41 KOKX 010520
TAFTEB
TAF
KTEB 010520Z 0106/0206 28005KT P6SM SCT250
     FM010800 VRB03KT P6SM SCT250
     FM011500 36005KT P6SM SCT050
     FM012000 14008KT P6SM SCT050
     FM020300 VRB03KT P6SM SCT040=

USA.gov is the U.S. government's official web portal to all federal, state and local government web resources and services.